sensor_id;sensor_type;location;lat;lon;timestamp;temperature;humidity
15107;DHT22;7654;45.308;-75.096;2022-10-16T00:01:29;11.00;97.20
15107;DHT22;7654;45.308;-75.096;2022-10-16T00:04:02;10.90;97.10
15107;DHT22;7654;45.308;-75.096;2022-10-16T00:06:33;10.90;96.70
15107;DHT22;7654;45.308;-75.096;2022-10-16T00:09:04;10.80;97.00
15107;DHT22;7654;45.308;-75.096;2022-10-16T00:11:37;10.70;97.40
15107;DHT22;7654;45.308;-75.096;2022-10-16T00:14:10;10.40;97.80
15107;DHT22;7654;45.308;-75.096;2022-10-16T00:16:42;10.30;98.00
15107;DHT22;7654;45.308;-75.096;2022-10-16T00:19:13;10.10;98.50
15107;DHT22;7654;45.308;-75.096;2022-10-16T00:21:43;10.00;98.70
15107;DHT22;7654;45.308;-75.096;2022-10-16T00:24:13;9.90;99.40
15107;DHT22;7654;45.308;-75.096;2022-10-16T00:26:44;9.80;99.20
15107;DHT22;7654;45.308;-75.096;2022-10-16T00:29:14;9.70;99.50
15107;DHT22;7654;45.308;-75.096;2022-10-16T00:31:46;9.60;99.90
15107;DHT22;7654;45.308;-75.096;2022-10-16T00:34:17;9.50;99.90
15107;DHT22;7654;45.308;-75.096;2022-10-16T00:36:47;9.40;99.90
15107;DHT22;7654;45.308;-75.096;2022-10-16T00:39:17;9.30;99.90
15107;DHT22;7654;45.308;-75.096;2022-10-16T00:41:47;9.30;99.90
15107;DHT22;7654;45.308;-75.096;2022-10-16T00:44:43;9.20;99.90
15107;DHT22;7654;45.308;-75.096;2022-10-16T00:47:19;9.20;99.90
15107;DHT22;7654;45.308;-75.096;2022-10-16T00:49:55;9.20;99.90
15107;DHT22;7654;45.308;-75.096;2022-10-16T00:52:29;9.20;99.90
15107;DHT22;7654;45.308;-75.096;2022-10-16T00:55:00;9.10;99.90
15107;DHT22;7654;45.308;-75.096;2022-10-16T00:57:32;9.00;99.90
15107;DHT22;7654;45.308;-75.096;2022-10-16T01:00:05;9.00;99.90
15107;DHT22;7654;45.308;-75.096;2022-10-16T01:02:37;8.90;99.90
15107;DHT22;7654;45.308;-75.096;2022-10-16T01:05:09;8.80;99.90
15107;DHT22;7654;45.308;-75.096;2022-10-16T01:07:48;8.70;99.90
15107;DHT22;7654;45.308;-75.096;2022-10-16T01:10:27;8.50;99.90
15107;DHT22;7654;45.308;-75.096;2022-10-16T01:13:04;8.40;99.90
15107;DHT22;7654;45.308;-75.096;2022-10-16T01:15:39;8.20;99.90
15107;DHT22;7654;45.308;-75.096;2022-10-16T01:18:16;8.20;99.90
15107;DHT22;7654;45.308;-75.096;2022-10-16T01:20:52;8.00;99.90
15107;DHT22;7654;45.308;-75.096;2022-10-16T01:23:36;8.00;99.90
15107;DHT22;7654;45.308;-75.096;2022-10-16T01:26:31;7.90;99.90
15107;DHT22;7654;45.308;-75.096;2022-10-16T01:29:13;7.80;99.90
15107;DHT22;7654;45.308;-75.096;2022-10-16T01:31:49;7.70;99.90
15107;DHT22;7654;45.308;-75.096;2022-10-16T01:34:25;7.60;99.90
15107;DHT22;7654;45.308;-75.096;2022-10-16T01:37:04;7.40;99.90
15107;DHT22;7654;45.308;-75.096;2022-10-16T01:39:39;7.10;99.90
15107;DHT22;7654;45.308;-75.096;2022-10-16T01:42:16;6.80;99.90
15107;DHT22;7654;45.308;-75.096;2022-10-16T01:44:51;6.70;99.90
15107;DHT22;7654;45.308;-75.096;2022-10-16T01:47:24;6.60;99.90
15107;DHT22;7654;45.308;-75.096;2022-10-16T01:49:57;6.50;99.90
15107;DHT22;7654;45.308;-75.096;2022-10-16T01:52:29;6.30;99.90
15107;DHT22;7654;45.308;-75.096;2022-10-16T01:55:01;6.20;99.90
15107;DHT22;7654;45.308;-75.096;2022-10-16T01:57:32;6.10;99.90
15107;DHT22;7654;45.308;-75.096;2022-10-16T02:00:08;6.10;99.90
15107;DHT22;7654;45.308;-75.096;2022-10-16T02:02:41;6.00;99.90
15107;DHT22;7654;45.308;-75.096;2022-10-16T02:05:18;6.10;99.90
15107;DHT22;7654;45.308;-75.096;2022-10-16T02:07:50;6.20;99.90
15107;DHT22;7654;45.308;-75.096;2022-10-16T02:10:21;6.30;99.90
15107;DHT22;7654;45.308;-75.096;2022-10-16T02:12:57;6.40;99.90
15107;DHT22;7654;45.308;-75.096;2022-10-16T02:15:30;6.40;99.90
15107;DHT22;7654;45.308;-75.096;2022-10-16T02:18:01;6.40;99.90
15107;DHT22;7654;45.308;-75.096;2022-10-16T02:20:37;6.40;99.90
15107;DHT22;7654;45.308;-75.096;2022-10-16T02:23:12;6.50;99.90
15107;DHT22;7654;45.308;-75.096;2022-10-16T02:25:46;6.60;99.90
15107;DHT22;7654;45.308;-75.096;2022-10-16T02:28:19;6.80;99.90
15107;DHT22;7654;45.308;-75.096;2022-10-16T02:30:57;6.90;99.90
15107;DHT22;7654;45.308;-75.096;2022-10-16T02:33:29;7.10;99.90
15107;DHT22;7654;45.308;-75.096;2022-10-16T02:36:01;7.20;99.90
15107;DHT22;7654;45.308;-75.096;2022-10-16T02:38:32;7.20;99.90
15107;DHT22;7654;45.308;-75.096;2022-10-16T02:41:04;7.20;99.90
15107;DHT22;7654;45.308;-75.096;2022-10-16T02:43:34;7.20;99.90
15107;DHT22;7654;45.308;-75.096;2022-10-16T02:46:06;7.20;99.90
15107;DHT22;7654;45.308;-75.096;2022-10-16T02:48:37;7.20;99.90
15107;DHT22;7654;45.308;-75.096;2022-10-16T02:51:07;7.10;99.90
15107;DHT22;7654;45.308;-75.096;2022-10-16T02:53:37;7.00;99.90
15107;DHT22;7654;45.308;-75.096;2022-10-16T02:56:08;6.80;99.90
15107;DHT22;7654;45.308;-75.096;2022-10-16T02:58:38;6.70;99.90
15107;DHT22;7654;45.308;-75.096;2022-10-16T03:01:10;6.60;99.90
15107;DHT22;7654;45.308;-75.096;2022-10-16T03:03:42;6.50;99.90
15107;DHT22;7654;45.308;-75.096;2022-10-16T03:06:12;6.40;99.90
15107;DHT22;7654;45.308;-75.096;2022-10-16T03:08:43;6.30;99.90
15107;DHT22;7654;45.308;-75.096;2022-10-16T03:11:13;6.20;99.90
15107;DHT22;7654;45.308;-75.096;2022-10-16T03:13:43;6.10;99.90
15107;DHT22;7654;45.308;-75.096;2022-10-16T03:16:15;6.00;99.90
15107;DHT22;7654;45.308;-75.096;2022-10-16T03:18:48;5.90;99.90
15107;DHT22;7654;45.308;-75.096;2022-10-16T03:21:19;5.70;99.90
15107;DHT22;7654;45.308;-75.096;2022-10-16T03:23:50;5.50;99.90
15107;DHT22;7654;45.308;-75.096;2022-10-16T03:26:20;5.30;99.90
15107;DHT22;7654;45.308;-75.096;2022-10-16T03:28:50;5.10;99.90
15107;DHT22;7654;45.308;-75.096;2022-10-16T03:31:22;4.90;99.90
15107;DHT22;7654;45.308;-75.096;2022-10-16T03:33:53;4.70;99.90
15107;DHT22;7654;45.308;-75.096;2022-10-16T03:36:23;4.50;99.90
15107;DHT22;7654;45.308;-75.096;2022-10-16T03:38:53;4.40;99.90
15107;DHT22;7654;45.308;-75.096;2022-10-16T03:41:24;4.20;99.90
15107;DHT22;7654;45.308;-75.096;2022-10-16T03:43:54;4.00;99.90
15107;DHT22;7654;45.308;-75.096;2022-10-16T03:46:26;3.90;99.90
15107;DHT22;7654;45.308;-75.096;2022-10-16T03:48:56;3.80;99.90
15107;DHT22;7654;45.308;-75.096;2022-10-16T03:51:26;3.80;99.90
15107;DHT22;7654;45.308;-75.096;2022-10-16T03:53:57;3.70;99.90
15107;DHT22;7654;45.308;-75.096;2022-10-16T03:56:27;3.80;99.90
15107;DHT22;7654;45.308;-75.096;2022-10-16T03:58:57;3.90;99.90
15107;DHT22;7654;45.308;-75.096;2022-10-16T04:01:29;4.00;99.90
15107;DHT22;7654;45.308;-75.096;2022-10-16T04:04:00;4.20;99.90
15107;DHT22;7654;45.308;-75.096;2022-10-16T04:06:30;4.20;99.90
15107;DHT22;7654;45.308;-75.096;2022-10-16T04:09:00;4.20;99.90
15107;DHT22;7654;45.308;-75.096;2022-10-16T04:11:31;4.10;99.90
15107;DHT22;7654;45.308;-75.096;2022-10-16T04:14:01;4.00;99.90
15107;DHT22;7654;45.308;-75.096;2022-10-16T04:16:33;3.90;99.90
15107;DHT22;7654;45.308;-75.096;2022-10-16T04:20:56;3.70;99.90
15107;DHT22;7654;45.308;-75.096;2022-10-16T04:23:27;3.70;99.90
15107;DHT22;7654;45.308;-75.096;2022-10-16T04:25:57;3.60;99.90
15107;DHT22;7654;45.308;-75.096;2022-10-16T04:28:28;3.50;99.90
15107;DHT22;7654;45.308;-75.096;2022-10-16T04:30:58;3.40;99.90
15107;DHT22;7654;45.308;-75.096;2022-10-16T04:33:29;3.30;99.90
15107;DHT22;7654;45.308;-75.096;2022-10-16T04:36:02;3.20;99.90
15107;DHT22;7654;45.308;-75.096;2022-10-16T04:38:34;3.10;99.90
15107;DHT22;7654;45.308;-75.096;2022-10-16T04:41:05;3.10;99.90
15107;DHT22;7654;45.308;-75.096;2022-10-16T04:43:36;3.10;99.90
15107;DHT22;7654;45.308;-75.096;2022-10-16T04:46:07;3.20;99.90
15107;DHT22;7654;45.308;-75.096;2022-10-16T04:48:38;3.10;99.90
15107;DHT22;7654;45.308;-75.096;2022-10-16T04:51:11;3.10;99.90
15107;DHT22;7654;45.308;-75.096;2022-10-16T04:53:42;3.00;99.90
15107;DHT22;7654;45.308;-75.096;2022-10-16T04:56:12;3.00;99.90
15107;DHT22;7654;45.308;-75.096;2022-10-16T04:58:43;2.90;99.90
15107;DHT22;7654;45.308;-75.096;2022-10-16T05:01:14;2.80;99.90
15107;DHT22;7654;45.308;-75.096;2022-10-16T05:03:45;2.80;99.90
15107;DHT22;7654;45.308;-75.096;2022-10-16T05:06:17;2.70;99.90
15107;DHT22;7654;45.308;-75.096;2022-10-16T05:08:47;2.60;99.90
15107;DHT22;7654;45.308;-75.096;2022-10-16T05:11:17;2.50;99.90
15107;DHT22;7654;45.308;-75.096;2022-10-16T05:13:48;2.40;99.90
15107;DHT22;7654;45.308;-75.096;2022-10-16T05:16:22;2.30;99.90
15107;DHT22;7654;45.308;-75.096;2022-10-16T05:18:53;2.30;99.90
15107;DHT22;7654;45.308;-75.096;2022-10-16T05:21:45;2.30;99.90
15107;DHT22;7654;45.308;-75.096;2022-10-16T05:24:16;2.40;99.90
15107;DHT22;7654;45.308;-75.096;2022-10-16T05:26:46;2.40;99.90
15107;DHT22;7654;45.308;-75.096;2022-10-16T05:30:25;2.50;99.90
15107;DHT22;7654;45.308;-75.096;2022-10-16T05:32:56;2.50;99.90
15107;DHT22;7654;45.308;-75.096;2022-10-16T05:35:26;2.40;99.90
15107;DHT22;7654;45.308;-75.096;2022-10-16T05:37:57;2.40;99.90
15107;DHT22;7654;45.308;-75.096;2022-10-16T05:40:27;2.30;99.90
15107;DHT22;7654;45.308;-75.096;2022-10-16T05:42:58;2.30;99.90
15107;DHT22;7654;45.308;-75.096;2022-10-16T05:45:29;2.20;99.90
15107;DHT22;7654;45.308;-75.096;2022-10-16T05:48:00;2.20;99.90
15107;DHT22;7654;45.308;-75.096;2022-10-16T05:50:31;2.20;99.90
15107;DHT22;7654;45.308;-75.096;2022-10-16T05:53:01;2.20;99.90
15107;DHT22;7654;45.308;-75.096;2022-10-16T05:55:31;2.10;99.90
15107;DHT22;7654;45.308;-75.096;2022-10-16T05:58:02;2.10;99.90
15107;DHT22;7654;45.308;-75.096;2022-10-16T06:00:34;2.10;99.90
15107;DHT22;7654;45.308;-75.096;2022-10-16T06:03:04;2.00;99.90
15107;DHT22;7654;45.308;-75.096;2022-10-16T06:05:35;2.00;99.90
15107;DHT22;7654;45.308;-75.096;2022-10-16T06:08:05;2.00;99.90
15107;DHT22;7654;45.308;-75.096;2022-10-16T06:10:35;2.10;99.90
15107;DHT22;7654;45.308;-75.096;2022-10-16T06:13:07;2.10;99.90
15107;DHT22;7654;45.308;-75.096;2022-10-16T06:15:39;2.10;99.90
15107;DHT22;7654;45.308;-75.096;2022-10-16T06:18:11;2.10;99.90
15107;DHT22;7654;45.308;-75.096;2022-10-16T06:20:41;2.00;99.90
15107;DHT22;7654;45.308;-75.096;2022-10-16T06:23:12;1.90;99.90
15107;DHT22;7654;45.308;-75.096;2022-10-16T06:25:42;1.80;99.90
15107;DHT22;7654;45.308;-75.096;2022-10-16T06:28:14;1.80;99.90
15107;DHT22;7654;45.308;-75.096;2022-10-16T06:30:47;1.90;99.90
15107;DHT22;7654;45.308;-75.096;2022-10-16T06:33:17;1.90;99.90
15107;DHT22;7654;45.308;-75.096;2022-10-16T06:35:47;1.80;99.90
15107;DHT22;7654;45.308;-75.096;2022-10-16T06:38:17;1.90;99.90
15107;DHT22;7654;45.308;-75.096;2022-10-16T06:40:48;1.90;99.90
15107;DHT22;7654;45.308;-75.096;2022-10-16T06:43:19;1.90;99.90
15107;DHT22;7654;45.308;-75.096;2022-10-16T06:45:53;1.90;99.90
15107;DHT22;7654;45.308;-75.096;2022-10-16T06:48:24;1.90;99.90
15107;DHT22;7654;45.308;-75.096;2022-10-16T06:50:58;1.90;99.90
15107;DHT22;7654;45.308;-75.096;2022-10-16T06:53:33;1.80;99.90
15107;DHT22;7654;45.308;-75.096;2022-10-16T06:56:16;1.80;99.90
15107;DHT22;7654;45.308;-75.096;2022-10-16T06:58:47;1.60;99.90
15107;DHT22;7654;45.308;-75.096;2022-10-16T07:01:22;1.60;99.90
15107;DHT22;7654;45.308;-75.096;2022-10-16T07:03:53;1.60;99.90
15107;DHT22;7654;45.308;-75.096;2022-10-16T07:06:24;1.60;99.90
15107;DHT22;7654;45.308;-75.096;2022-10-16T07:08:55;1.70;99.90
15107;DHT22;7654;45.308;-75.096;2022-10-16T07:11:26;1.70;99.90
15107;DHT22;7654;45.308;-75.096;2022-10-16T07:13:56;1.70;99.90
15107;DHT22;7654;45.308;-75.096;2022-10-16T07:16:30;1.70;99.90
15107;DHT22;7654;45.308;-75.096;2022-10-16T07:19:01;1.60;99.90
15107;DHT22;7654;45.308;-75.096;2022-10-16T07:21:33;1.60;99.90
15107;DHT22;7654;45.308;-75.096;2022-10-16T07:24:07;1.70;99.90
15107;DHT22;7654;45.308;-75.096;2022-10-16T07:26:37;1.80;99.90
15107;DHT22;7654;45.308;-75.096;2022-10-16T07:29:13;1.70;99.90
15107;DHT22;7654;45.308;-75.096;2022-10-16T07:31:46;1.60;99.90
15107;DHT22;7654;45.308;-75.096;2022-10-16T07:34:18;1.50;99.90
15107;DHT22;7654;45.308;-75.096;2022-10-16T07:36:50;1.50;99.90
15107;DHT22;7654;45.308;-75.096;2022-10-16T07:39:21;1.50;99.90
15107;DHT22;7654;45.308;-75.096;2022-10-16T07:41:52;1.40;99.90
15107;DHT22;7654;45.308;-75.096;2022-10-16T07:44:22;1.30;99.90
15107;DHT22;7654;45.308;-75.096;2022-10-16T07:46:54;1.10;99.90
15107;DHT22;7654;45.308;-75.096;2022-10-16T07:49:24;1.00;99.90
15107;DHT22;7654;45.308;-75.096;2022-10-16T07:51:55;0.90;99.90
15107;DHT22;7654;45.308;-75.096;2022-10-16T07:54:25;0.80;99.90
15107;DHT22;7654;45.308;-75.096;2022-10-16T07:56:56;0.70;99.90
15107;DHT22;7654;45.308;-75.096;2022-10-16T07:59:26;0.60;99.90
15107;DHT22;7654;45.308;-75.096;2022-10-16T08:01:58;0.60;99.90
15107;DHT22;7654;45.308;-75.096;2022-10-16T08:04:28;0.50;99.90
15107;DHT22;7654;45.308;-75.096;2022-10-16T08:06:59;0.50;99.90
15107;DHT22;7654;45.308;-75.096;2022-10-16T08:09:29;0.50;99.90
15107;DHT22;7654;45.308;-75.096;2022-10-16T08:12:00;0.50;99.90
15107;DHT22;7654;45.308;-75.096;2022-10-16T08:14:31;0.50;99.90
15107;DHT22;7654;45.308;-75.096;2022-10-16T08:17:03;0.60;99.90
15107;DHT22;7654;45.308;-75.096;2022-10-16T08:19:33;0.60;99.90
15107;DHT22;7654;45.308;-75.096;2022-10-16T08:22:04;0.70;99.90
15107;DHT22;7654;45.308;-75.096;2022-10-16T08:24:35;0.80;99.90
15107;DHT22;7654;45.308;-75.096;2022-10-16T08:27:06;0.80;99.90
15107;DHT22;7654;45.308;-75.096;2022-10-16T08:29:37;1.00;99.90
15107;DHT22;7654;45.308;-75.096;2022-10-16T08:32:10;1.00;99.90
15107;DHT22;7654;45.308;-75.096;2022-10-16T08:34:40;1.10;99.90
15107;DHT22;7654;45.308;-75.096;2022-10-16T08:37:11;1.10;99.90
15107;DHT22;7654;45.308;-75.096;2022-10-16T08:39:42;1.20;99.90
15107;DHT22;7654;45.308;-75.096;2022-10-16T08:42:27;1.20;99.90
15107;DHT22;7654;45.308;-75.096;2022-10-16T08:45:25;1.20;99.90
15107;DHT22;7654;45.308;-75.096;2022-10-16T08:48:09;1.20;99.90
15107;DHT22;7654;45.308;-75.096;2022-10-16T08:50:41;1.20;99.90
15107;DHT22;7654;45.308;-75.096;2022-10-16T08:53:17;1.30;99.90
15107;DHT22;7654;45.308;-75.096;2022-10-16T08:55:50;1.20;99.90
15107;DHT22;7654;45.308;-75.096;2022-10-16T08:58:22;1.20;99.90
15107;DHT22;7654;45.308;-75.096;2022-10-16T09:00:57;1.20;99.90
15107;DHT22;7654;45.308;-75.096;2022-10-16T09:03:46;1.40;99.90
15107;DHT22;7654;45.308;-75.096;2022-10-16T09:06:32;1.50;99.90
15107;DHT22;7654;45.308;-75.096;2022-10-16T09:15:01;2.00;99.90
15107;DHT22;7654;45.308;-75.096;2022-10-16T09:17:49;2.00;99.90
15107;DHT22;7654;45.308;-75.096;2022-10-16T09:20:28;1.90;99.90
15107;DHT22;7654;45.308;-75.096;2022-10-16T09:23:13;1.80;99.90
15107;DHT22;7654;45.308;-75.096;2022-10-16T09:25:47;1.70;99.90
15107;DHT22;7654;45.308;-75.096;2022-10-16T09:28:19;1.60;99.90
15107;DHT22;7654;45.308;-75.096;2022-10-16T09:30:51;1.60;99.90
15107;DHT22;7654;45.308;-75.096;2022-10-16T09:33:25;1.50;99.90
15107;DHT22;7654;45.308;-75.096;2022-10-16T09:35:57;1.50;99.90
15107;DHT22;7654;45.308;-75.096;2022-10-16T09:38:29;1.40;99.90
15107;DHT22;7654;45.308;-75.096;2022-10-16T09:41:01;1.30;99.90
15107;DHT22;7654;45.308;-75.096;2022-10-16T09:43:35;1.30;99.90
15107;DHT22;7654;45.308;-75.096;2022-10-16T09:46:22;1.30;99.90
15107;DHT22;7654;45.308;-75.096;2022-10-16T09:48:57;1.30;99.90
15107;DHT22;7654;45.308;-75.096;2022-10-16T09:51:29;1.30;99.90
15107;DHT22;7654;45.308;-75.096;2022-10-16T09:54:01;1.50;99.90
15107;DHT22;7654;45.308;-75.096;2022-10-16T09:56:35;1.40;99.90
15107;DHT22;7654;45.308;-75.096;2022-10-16T09:59:11;1.50;99.90
15107;DHT22;7654;45.308;-75.096;2022-10-16T10:01:46;1.50;99.90
15107;DHT22;7654;45.308;-75.096;2022-10-16T10:04:17;1.50;99.90
15107;DHT22;7654;45.308;-75.096;2022-10-16T10:06:50;1.40;99.90
15107;DHT22;7654;45.308;-75.096;2022-10-16T10:09:22;1.40;99.90
15107;DHT22;7654;45.308;-75.096;2022-10-16T10:11:55;1.40;99.90
15107;DHT22;7654;45.308;-75.096;2022-10-16T10:14:32;1.40;99.90
15107;DHT22;7654;45.308;-75.096;2022-10-16T10:17:14;1.30;99.90
15107;DHT22;7654;45.308;-75.096;2022-10-16T10:19:49;1.20;99.90
15107;DHT22;7654;45.308;-75.096;2022-10-16T10:22:31;1.20;99.90
15107;DHT22;7654;45.308;-75.096;2022-10-16T10:25:44;1.10;99.90
15107;DHT22;7654;45.308;-75.096;2022-10-16T10:31:24;0.90;99.90
15107;DHT22;7654;45.308;-75.096;2022-10-16T10:34:04;0.80;99.90
15107;DHT22;7654;45.308;-75.096;2022-10-16T10:36:42;0.80;99.90
15107;DHT22;7654;45.308;-75.096;2022-10-16T10:39:16;0.70;99.90
15107;DHT22;7654;45.308;-75.096;2022-10-16T10:42:18;0.80;99.90
15107;DHT22;7654;45.308;-75.096;2022-10-16T10:45:15;0.70;99.90
15107;DHT22;7654;45.308;-75.096;2022-10-16T10:48:02;0.70;99.90
15107;DHT22;7654;45.308;-75.096;2022-10-16T10:50:41;0.60;99.90
15107;DHT22;7654;45.308;-75.096;2022-10-16T10:53:23;0.60;99.90
15107;DHT22;7654;45.308;-75.096;2022-10-16T10:56:02;0.60;99.90
15107;DHT22;7654;45.308;-75.096;2022-10-16T10:59:02;0.60;99.90
15107;DHT22;7654;45.308;-75.096;2022-10-16T11:01:41;0.60;99.90
15107;DHT22;7654;45.308;-75.096;2022-10-16T11:07:25;0.70;99.90
15107;DHT22;7654;45.308;-75.096;2022-10-16T11:10:01;0.70;99.90
15107;DHT22;7654;45.308;-75.096;2022-10-16T11:12:36;0.60;99.90
15107;DHT22;7654;45.308;-75.096;2022-10-16T11:15:14;0.60;99.90
15107;DHT22;7654;45.308;-75.096;2022-10-16T11:17:50;0.60;99.90
15107;DHT22;7654;45.308;-75.096;2022-10-16T11:20:24;0.70;99.90
15107;DHT22;7654;45.308;-75.096;2022-10-16T11:23:00;0.70;99.90
15107;DHT22;7654;45.308;-75.096;2022-10-16T11:25:33;0.70;99.90
15107;DHT22;7654;45.308;-75.096;2022-10-16T11:28:08;0.70;99.90
15107;DHT22;7654;45.308;-75.096;2022-10-16T11:30:44;0.70;99.90
15107;DHT22;7654;45.308;-75.096;2022-10-16T11:35:47;0.80;99.90
15107;DHT22;7654;45.308;-75.096;2022-10-16T11:38:27;0.80;99.90
15107;DHT22;7654;45.308;-75.096;2022-10-16T11:41:02;0.90;99.90
15107;DHT22;7654;45.308;-75.096;2022-10-16T11:43:37;0.90;99.90
15107;DHT22;7654;45.308;-75.096;2022-10-16T11:46:12;0.90;99.90
15107;DHT22;7654;45.308;-75.096;2022-10-16T11:48:48;0.90;99.90
15107;DHT22;7654;45.308;-75.096;2022-10-16T11:51:28;0.90;99.90
15107;DHT22;7654;45.308;-75.096;2022-10-16T11:54:07;1.00;99.90
15107;DHT22;7654;45.308;-75.096;2022-10-16T11:56:41;1.00;99.90
15107;DHT22;7654;45.308;-75.096;2022-10-16T11:59:20;1.00;99.90
15107;DHT22;7654;45.308;-75.096;2022-10-16T12:02:15;1.10;99.90
15107;DHT22;7654;45.308;-75.096;2022-10-16T12:04:51;1.10;99.90
15107;DHT22;7654;45.308;-75.096;2022-10-16T12:07:32;1.20;99.90
15107;DHT22;7654;45.308;-75.096;2022-10-16T12:10:17;1.30;99.90
15107;DHT22;7654;45.308;-75.096;2022-10-16T12:12:54;1.40;99.90
15107;DHT22;7654;45.308;-75.096;2022-10-16T12:15:27;1.60;99.90
15107;DHT22;7654;45.308;-75.096;2022-10-16T12:18:21;1.80;99.90
15107;DHT22;7654;45.308;-75.096;2022-10-16T12:20:57;2.10;99.90
15107;DHT22;7654;45.308;-75.096;2022-10-16T12:23:38;2.40;99.90
15107;DHT22;7654;45.308;-75.096;2022-10-16T12:26:10;2.70;99.90
15107;DHT22;7654;45.308;-75.096;2022-10-16T12:28:40;2.90;99.90
15107;DHT22;7654;45.308;-75.096;2022-10-16T12:31:11;3.10;99.90
15107;DHT22;7654;45.308;-75.096;2022-10-16T12:33:51;3.30;99.90
15107;DHT22;7654;45.308;-75.096;2022-10-16T12:36:29;3.40;99.90
15107;DHT22;7654;45.308;-75.096;2022-10-16T12:39:02;3.60;99.90
15107;DHT22;7654;45.308;-75.096;2022-10-16T12:41:34;3.80;99.90
15107;DHT22;7654;45.308;-75.096;2022-10-16T12:44:23;4.00;99.90
15107;DHT22;7654;45.308;-75.096;2022-10-16T12:46:54;4.20;99.90
15107;DHT22;7654;45.308;-75.096;2022-10-16T12:49:31;4.40;99.90
15107;DHT22;7654;45.308;-75.096;2022-10-16T12:52:02;4.60;99.90
15107;DHT22;7654;45.308;-75.096;2022-10-16T12:54:37;4.70;99.90
15107;DHT22;7654;45.308;-75.096;2022-10-16T12:57:23;4.90;99.90
15107;DHT22;7654;45.308;-75.096;2022-10-16T13:00:13;5.10;99.90
15107;DHT22;7654;45.308;-75.096;2022-10-16T13:02:56;5.20;99.90
15107;DHT22;7654;45.308;-75.096;2022-10-16T13:05:40;5.40;99.90
15107;DHT22;7654;45.308;-75.096;2022-10-16T13:11:33;5.70;99.90
15107;DHT22;7654;45.308;-75.096;2022-10-16T13:14:20;6.00;99.90
15107;DHT22;7654;45.308;-75.096;2022-10-16T13:17:00;6.20;99.90
15107;DHT22;7654;45.308;-75.096;2022-10-16T13:19:38;6.30;99.90
15107;DHT22;7654;45.308;-75.096;2022-10-16T13:22:19;6.40;99.90
15107;DHT22;7654;45.308;-75.096;2022-10-16T13:24:59;6.50;99.90
15107;DHT22;7654;45.308;-75.096;2022-10-16T13:27:44;6.70;99.90
15107;DHT22;7654;45.308;-75.096;2022-10-16T13:30:18;7.00;99.90
15107;DHT22;7654;45.308;-75.096;2022-10-16T13:33:01;7.10;99.90
15107;DHT22;7654;45.308;-75.096;2022-10-16T13:35:33;7.40;99.90
15107;DHT22;7654;45.308;-75.096;2022-10-16T13:38:12;7.50;99.90
15107;DHT22;7654;45.308;-75.096;2022-10-16T13:40:51;7.70;99.90
15107;DHT22;7654;45.308;-75.096;2022-10-16T13:43:26;7.90;99.90
15107;DHT22;7654;45.308;-75.096;2022-10-16T13:53:37;8.50;99.90
15107;DHT22;7654;45.308;-75.096;2022-10-16T13:56:12;9.00;99.90
15107;DHT22;7654;45.308;-75.096;2022-10-16T13:58:45;9.10;99.90
15107;DHT22;7654;45.308;-75.096;2022-10-16T14:01:17;9.10;99.90
15107;DHT22;7654;45.308;-75.096;2022-10-16T14:03:52;9.10;99.90
15107;DHT22;7654;45.308;-75.096;2022-10-16T14:06:22;9.00;99.90
15107;DHT22;7654;45.308;-75.096;2022-10-16T14:08:58;9.10;99.90
15107;DHT22;7654;45.308;-75.096;2022-10-16T14:11:29;9.20;99.90
15107;DHT22;7654;45.308;-75.096;2022-10-16T14:14:02;9.40;99.90
15107;DHT22;7654;45.308;-75.096;2022-10-16T14:16:33;9.60;99.90
15107;DHT22;7654;45.308;-75.096;2022-10-16T14:19:05;9.90;99.90
15107;DHT22;7654;45.308;-75.096;2022-10-16T14:21:38;10.10;99.90
15107;DHT22;7654;45.308;-75.096;2022-10-16T14:24:19;10.30;99.90
15107;DHT22;7654;45.308;-75.096;2022-10-16T14:26:52;10.30;99.90
15107;DHT22;7654;45.308;-75.096;2022-10-16T14:29:28;10.40;99.90
15107;DHT22;7654;45.308;-75.096;2022-10-16T14:32:20;10.40;99.90
15107;DHT22;7654;45.308;-75.096;2022-10-16T14:34:54;10.40;99.90
15107;DHT22;7654;45.308;-75.096;2022-10-16T14:37:26;10.60;99.90
15107;DHT22;7654;45.308;-75.096;2022-10-16T14:39:58;10.80;99.90
15107;DHT22;7654;45.308;-75.096;2022-10-16T14:42:30;11.00;99.90
15107;DHT22;7654;45.308;-75.096;2022-10-16T14:45:09;11.30;99.90
15107;DHT22;7654;45.308;-75.096;2022-10-16T14:47:49;11.70;99.90
15107;DHT22;7654;45.308;-75.096;2022-10-16T14:50:20;11.90;99.90
15107;DHT22;7654;45.308;-75.096;2022-10-16T14:52:51;12.10;99.90
15107;DHT22;7654;45.308;-75.096;2022-10-16T14:55:21;12.30;99.90
15107;DHT22;7654;45.308;-75.096;2022-10-16T14:57:52;12.30;99.90
15107;DHT22;7654;45.308;-75.096;2022-10-16T15:00:29;12.40;99.90
15107;DHT22;7654;45.308;-75.096;2022-10-16T15:03:00;12.50;99.90
15107;DHT22;7654;45.308;-75.096;2022-10-16T15:05:32;12.60;99.90
15107;DHT22;7654;45.308;-75.096;2022-10-16T15:08:03;12.70;99.90
15107;DHT22;7654;45.308;-75.096;2022-10-16T15:10:38;13.00;99.90
15107;DHT22;7654;45.308;-75.096;2022-10-16T15:13:13;13.20;99.90
15107;DHT22;7654;45.308;-75.096;2022-10-16T15:15:46;13.30;99.90
15107;DHT22;7654;45.308;-75.096;2022-10-16T15:18:17;13.10;99.90
15107;DHT22;7654;45.308;-75.096;2022-10-16T15:20:49;12.90;99.90
15107;DHT22;7654;45.308;-75.096;2022-10-16T15:23:22;12.60;99.90
15107;DHT22;7654;45.308;-75.096;2022-10-16T15:25:53;12.70;99.90
15107;DHT22;7654;45.308;-75.096;2022-10-16T15:28:24;12.80;99.90
15107;DHT22;7654;45.308;-75.096;2022-10-16T15:30:57;12.90;99.90
15107;DHT22;7654;45.308;-75.096;2022-10-16T15:33:28;12.90;99.90
15107;DHT22;7654;45.308;-75.096;2022-10-16T15:36:07;13.10;99.90
15107;DHT22;7654;45.308;-75.096;2022-10-16T15:38:37;13.30;99.90
15107;DHT22;7654;45.308;-75.096;2022-10-16T15:41:08;13.50;99.90
15107;DHT22;7654;45.308;-75.096;2022-10-16T15:43:38;13.60;99.90
15107;DHT22;7654;45.308;-75.096;2022-10-16T15:46:12;13.70;99.90
15107;DHT22;7654;45.308;-75.096;2022-10-16T15:48:43;13.90;99.90
15107;DHT22;7654;45.308;-75.096;2022-10-16T15:51:16;14.10;99.90
15107;DHT22;7654;45.308;-75.096;2022-10-16T15:53:47;14.10;99.90
15107;DHT22;7654;45.308;-75.096;2022-10-16T15:56:19;14.10;99.90
15107;DHT22;7654;45.308;-75.096;2022-10-16T15:58:51;13.90;99.90
15107;DHT22;7654;45.308;-75.096;2022-10-16T16:01:27;14.00;99.90
15107;DHT22;7654;45.308;-75.096;2022-10-16T16:03:57;14.20;99.90
15107;DHT22;7654;45.308;-75.096;2022-10-16T16:06:34;14.80;99.90
15107;DHT22;7654;45.308;-75.096;2022-10-16T16:09:07;15.20;99.90
15107;DHT22;7654;45.308;-75.096;2022-10-16T16:11:38;15.50;99.90
15107;DHT22;7654;45.308;-75.096;2022-10-16T16:14:11;15.60;99.90
15107;DHT22;7654;45.308;-75.096;2022-10-16T16:16:44;15.60;99.90
15107;DHT22;7654;45.308;-75.096;2022-10-16T16:19:15;15.40;99.90
15107;DHT22;7654;45.308;-75.096;2022-10-16T16:21:49;15.30;99.90
15107;DHT22;7654;45.308;-75.096;2022-10-16T16:24:20;15.10;99.90
15107;DHT22;7654;45.308;-75.096;2022-10-16T16:26:50;14.90;99.90
15107;DHT22;7654;45.308;-75.096;2022-10-16T16:29:22;14.90;99.90
15107;DHT22;7654;45.308;-75.096;2022-10-16T16:31:54;14.70;99.90
15107;DHT22;7654;45.308;-75.096;2022-10-16T16:34:30;14.60;99.90
15107;DHT22;7654;45.308;-75.096;2022-10-16T16:37:00;14.40;99.90
15107;DHT22;7654;45.308;-75.096;2022-10-16T16:39:31;14.40;99.90